sensor_id;sensor_type;location;lat;lon;timestamp;temperature;humidity
29577;DHT22;16509;53.862;10.672;2023-06-22T00:00:50;17.70;99.90
29577;DHT22;16509;53.862;10.672;2023-06-22T00:03:17;17.80;99.90
29577;DHT22;16509;53.862;10.672;2023-06-22T00:05:43;17.50;99.90
29577;DHT22;16509;53.862;10.672;2023-06-22T00:08:09;17.60;99.90
29577;DHT22;16509;53.862;10.672;2023-06-22T00:10:34;17.70;99.90
29577;DHT22;16509;53.862;10.672;2023-06-22T00:13:00;17.70;99.90
29577;DHT22;16509;53.862;10.672;2023-06-22T00:15:26;17.50;99.90
29577;DHT22;16509;53.862;10.672;2023-06-22T00:17:52;17.30;99.90
29577;DHT22;16509;53.862;10.672;2023-06-22T00:20:17;17.70;99.90
29577;DHT22;16509;53.862;10.672;2023-06-22T00:22:44;17.80;99.90
29577;DHT22;16509;53.862;10.672;2023-06-22T00:25:10;17.40;99.90
29577;DHT22;16509;53.862;10.672;2023-06-22T00:27:36;19.60;99.90
29577;DHT22;16509;53.862;10.672;2023-06-22T00:30:02;17.50;99.90
29577;DHT22;16509;53.862;10.672;2023-06-22T00:32:28;17.60;99.90
29577;DHT22;16509;53.862;10.672;2023-06-22T00:34:54;17.50;99.90
29577;DHT22;16509;53.862;10.672;2023-06-22T00:37:19;17.50;99.90
29577;DHT22;16509;53.862;10.672;2023-06-22T00:39:45;17.30;99.90
29577;DHT22;16509;53.862;10.672;2023-06-22T00:42:10;17.30;99.90
29577;DHT22;16509;53.862;10.672;2023-06-22T00:44:36;17.30;99.90
29577;DHT22;16509;53.862;10.672;2023-06-22T00:47:02;17.30;99.90
29577;DHT22;16509;53.862;10.672;2023-06-22T00:49:28;17.50;99.90
29577;DHT22;16509;53.862;10.672;2023-06-22T00:51:54;17.00;99.90
29577;DHT22;16509;53.862;10.672;2023-06-22T00:54:21;17.40;99.90
29577;DHT22;16509;53.862;10.672;2023-06-22T00:56:53;17.50;99.90
29577;DHT22;16509;53.862;10.672;2023-06-22T00:59:20;17.00;99.90
29577;DHT22;16509;53.862;10.672;2023-06-22T01:01:46;17.40;99.90
29577;DHT22;16509;53.862;10.672;2023-06-22T01:04:12;17.20;99.90
29577;DHT22;16509;53.862;10.672;2023-06-22T01:07:04;17.20;99.90
29577;DHT22;16509;53.862;10.672;2023-06-22T01:09:35;17.30;99.90
29577;DHT22;16509;53.862;10.672;2023-06-22T01:12:06;17.20;99.90
29577;DHT22;16509;53.862;10.672;2023-06-22T01:14:40;17.10;99.90
29577;DHT22;16509;53.862;10.672;2023-06-22T01:17:08;17.10;99.90
29577;DHT22;16509;53.862;10.672;2023-06-22T01:19:39;17.10;99.90
29577;DHT22;16509;53.862;10.672;2023-06-22T01:22:10;17.00;99.90
29577;DHT22;16509;53.862;10.672;2023-06-22T01:27:26;17.90;99.90
29577;DHT22;16509;53.862;10.672;2023-06-22T01:29:56;17.10;99.90
29577;DHT22;16509;53.862;10.672;2023-06-22T01:32:33;16.90;99.90
29577;DHT22;16509;53.862;10.672;2023-06-22T01:35:01;17.00;99.90
29577;DHT22;16509;53.862;10.672;2023-06-22T01:37:32;17.10;99.90
29577;DHT22;16509;53.862;10.672;2023-06-22T01:39:59;16.80;99.90
29577;DHT22;16509;53.862;10.672;2023-06-22T01:42:25;17.10;99.90
29577;DHT22;16509;53.862;10.672;2023-06-22T01:44:54;16.80;99.90
29577;DHT22;16509;53.862;10.672;2023-06-22T01:47:22;17.00;99.90
29577;DHT22;16509;53.862;10.672;2023-06-22T01:49:48;16.80;99.90
29577;DHT22;16509;53.862;10.672;2023-06-22T01:52:15;17.00;99.90
29577;DHT22;16509;53.862;10.672;2023-06-22T01:54:41;16.90;99.90
29577;DHT22;16509;53.862;10.672;2023-06-22T01:57:07;16.80;99.90
29577;DHT22;16509;53.862;10.672;2023-06-22T01:59:39;17.10;99.90
29577;DHT22;16509;53.862;10.672;2023-06-22T02:02:11;16.80;99.90
29577;DHT22;16509;53.862;10.672;2023-06-22T02:07:06;16.80;99.90
29577;DHT22;16509;53.862;10.672;2023-06-22T02:09:35;17.00;99.90
29577;DHT22;16509;53.862;10.672;2023-06-22T02:12:04;16.60;99.90
29577;DHT22;16509;53.862;10.672;2023-06-22T02:14:30;16.80;99.90
29577;DHT22;16509;53.862;10.672;2023-06-22T02:16:56;16.70;99.90
29577;DHT22;16509;53.862;10.672;2023-06-22T02:19:24;17.10;99.90
29577;DHT22;16509;53.862;10.672;2023-06-22T02:21:50;16.40;99.90
29577;DHT22;16509;53.862;10.672;2023-06-22T02:24:16;16.70;99.90
29577;DHT22;16509;53.862;10.672;2023-06-22T02:26:43;16.70;99.90
29577;DHT22;16509;53.862;10.672;2023-06-22T02:29:10;16.60;99.90
29577;DHT22;16509;53.862;10.672;2023-06-22T02:31:36;16.80;99.90
29577;DHT22;16509;53.862;10.672;2023-06-22T02:34:02;16.50;99.90
29577;DHT22;16509;53.862;10.672;2023-06-22T02:41:26;16.50;99.90
29577;DHT22;16509;53.862;10.672;2023-06-22T02:43:51;16.70;99.90
29577;DHT22;16509;53.862;10.672;2023-06-22T02:46:17;16.60;99.90
29577;DHT22;16509;53.862;10.672;2023-06-22T02:48:43;16.40;99.90
29577;DHT22;16509;53.862;10.672;2023-06-22T02:51:08;16.40;99.90
29577;DHT22;16509;53.862;10.672;2023-06-22T02:56:03;16.50;99.90
29577;DHT22;16509;53.862;10.672;2023-06-22T02:58:32;16.40;99.90
29577;DHT22;16509;53.862;10.672;2023-06-22T03:01:04;16.50;99.90
29577;DHT22;16509;53.862;10.672;2023-06-22T03:03:30;16.50;99.90
29577;DHT22;16509;53.862;10.672;2023-06-22T03:05:55;16.80;99.90
29577;DHT22;16509;53.862;10.672;2023-06-22T03:08:21;16.80;99.90
29577;DHT22;16509;53.862;10.672;2023-06-22T03:10:46;16.30;99.90
29577;DHT22;16509;53.862;10.672;2023-06-22T03:13:12;16.40;99.90
29577;DHT22;16509;53.862;10.672;2023-06-22T03:15:37;16.50;99.90
29577;DHT22;16509;53.862;10.672;2023-06-22T03:20:30;16.50;99.90
29577;DHT22;16509;53.862;10.672;2023-06-22T03:22:59;16.50;99.90
29577;DHT22;16509;53.862;10.672;2023-06-22T03:25:24;16.60;99.90
29577;DHT22;16509;53.862;10.672;2023-06-22T03:27:50;16.40;99.90
29577;DHT22;16509;53.862;10.672;2023-06-22T03:35:09;16.50;99.90
29577;DHT22;16509;53.862;10.672;2023-06-22T03:37:34;16.50;99.90
29577;DHT22;16509;53.862;10.672;2023-06-22T03:40:00;16.80;99.90
29577;DHT22;16509;53.862;10.672;2023-06-22T03:42:26;16.50;99.90
29577;DHT22;16509;53.862;10.672;2023-06-22T03:44:52;16.50;99.90
29577;DHT22;16509;53.862;10.672;2023-06-22T03:47:18;16.40;99.90
29577;DHT22;16509;53.862;10.672;2023-06-22T03:49:43;16.50;99.90
29577;DHT22;16509;53.862;10.672;2023-06-22T03:52:09;16.90;99.90
29577;DHT22;16509;53.862;10.672;2023-06-22T03:54:36;16.60;99.90
29577;DHT22;16509;53.862;10.672;2023-06-22T03:57:02;16.80;99.90
29577;DHT22;16509;53.862;10.672;2023-06-22T03:59:27;16.70;99.90
29577;DHT22;16509;53.862;10.672;2023-06-22T04:01:53;16.70;99.90
29577;DHT22;16509;53.862;10.672;2023-06-22T04:04:18;17.10;99.90
29577;DHT22;16509;53.862;10.672;2023-06-22T04:06:44;17.10;99.90
29577;DHT22;16509;53.862;10.672;2023-06-22T04:09:09;16.90;99.90
29577;DHT22;16509;53.862;10.672;2023-06-22T04:11:35;17.20;99.90
29577;DHT22;16509;53.862;10.672;2023-06-22T04:14:00;17.40;99.90
29577;DHT22;16509;53.862;10.672;2023-06-22T04:16:26;17.40;99.90
29577;DHT22;16509;53.862;10.672;2023-06-22T04:18:52;17.40;99.90
29577;DHT22;16509;53.862;10.672;2023-06-22T04:21:17;17.70;99.90
29577;DHT22;16509;53.862;10.672;2023-06-22T04:23:45;17.90;99.90
29577;DHT22;16509;53.862;10.672;2023-06-22T04:31:03;18.00;99.90
29577;DHT22;16509;53.862;10.672;2023-06-22T04:33:29;18.10;99.90
29577;DHT22;16509;53.862;10.672;2023-06-22T04:35:55;17.90;99.90
29577;DHT22;16509;53.862;10.672;2023-06-22T04:38:22;18.00;99.90
29577;DHT22;16509;53.862;10.672;2023-06-22T04:40:48;18.00;99.90
29577;DHT22;16509;53.862;10.672;2023-06-22T04:43:14;18.00;99.90
29577;DHT22;16509;53.862;10.672;2023-06-22T04:45:40;18.00;99.90
29577;DHT22;16509;53.862;10.672;2023-06-22T04:50:32;18.10;99.90
29577;DHT22;16509;53.862;10.672;2023-06-22T04:52:57;18.00;99.90
29577;DHT22;16509;53.862;10.672;2023-06-22T04:55:23;18.10;99.90
29577;DHT22;16509;53.862;10.672;2023-06-22T04:57:51;18.20;99.90
29577;DHT22;16509;53.862;10.672;2023-06-22T05:00:18;18.40;99.90
29577;DHT22;16509;53.862;10.672;2023-06-22T05:02:45;18.40;99.90
29577;DHT22;16509;53.862;10.672;2023-06-22T05:05:12;18.50;99.90
29577;DHT22;16509;53.862;10.672;2023-06-22T05:07:43;18.40;99.90
29577;DHT22;16509;53.862;10.672;2023-06-22T05:10:10;18.70;99.90
29577;DHT22;16509;53.862;10.672;2023-06-22T05:12:37;18.80;99.90
29577;DHT22;16509;53.862;10.672;2023-06-22T05:17:29;18.90;99.90
29577;DHT22;16509;53.862;10.672;2023-06-22T05:19:55;19.00;99.90
29577;DHT22;16509;53.862;10.672;2023-06-22T05:22:21;19.00;99.90
29577;DHT22;16509;53.862;10.672;2023-06-22T05:24:46;19.30;99.90
29577;DHT22;16509;53.862;10.672;2023-06-22T05:27:13;19.50;99.90
29577;DHT22;16509;53.862;10.672;2023-06-22T05:29:39;19.50;99.90
29577;DHT22;16509;53.862;10.672;2023-06-22T05:32:05;19.50;99.90
29577;DHT22;16509;53.862;10.672;2023-06-22T05:36:58;19.10;99.90
29577;DHT22;16509;53.862;10.672;2023-06-22T05:41:52;19.30;99.90
29577;DHT22;16509;53.862;10.672;2023-06-22T05:44:18;19.50;99.90
29577;DHT22;16509;53.862;10.672;2023-06-22T05:46:44;19.60;99.90
29577;DHT22;16509;53.862;10.672;2023-06-22T05:49:14;19.60;99.90
29577;DHT22;16509;53.862;10.672;2023-06-22T05:54:06;19.40;99.90
29577;DHT22;16509;53.862;10.672;2023-06-22T05:56:33;19.60;99.90
29577;DHT22;16509;53.862;10.672;2023-06-22T05:58:58;19.60;99.90
29577;DHT22;16509;53.862;10.672;2023-06-22T06:01:24;19.80;99.90
29577;DHT22;16509;53.862;10.672;2023-06-22T06:03:51;19.90;99.90
29577;DHT22;16509;53.862;10.672;2023-06-22T06:06:18;20.30;99.90
29577;DHT22;16509;53.862;10.672;2023-06-22T06:08:43;20.20;99.90
29577;DHT22;16509;53.862;10.672;2023-06-22T06:11:09;20.50;99.90
29577;DHT22;16509;53.862;10.672;2023-06-22T06:13:34;20.10;99.90
29577;DHT22;16509;53.862;10.672;2023-06-22T06:16:00;20.50;99.90
29577;DHT22;16509;53.862;10.672;2023-06-22T06:18:26;20.80;99.90
29577;DHT22;16509;53.862;10.672;2023-06-22T06:20:51;20.90;99.90
29577;DHT22;16509;53.862;10.672;2023-06-22T06:23:17;20.70;99.90
29577;DHT22;16509;53.862;10.672;2023-06-22T06:25:42;20.90;99.90
29577;DHT22;16509;53.862;10.672;2023-06-22T06:28:08;21.20;99.90
29577;DHT22;16509;53.862;10.672;2023-06-22T06:30:34;21.20;99.90
29577;DHT22;16509;53.862;10.672;2023-06-22T06:33:02;21.40;99.90
29577;DHT22;16509;53.862;10.672;2023-06-22T06:35:28;21.50;99.90
29577;DHT22;16509;53.862;10.672;2023-06-22T06:37:53;21.80;99.90
29577;DHT22;16509;53.862;10.672;2023-06-22T06:40:19;21.80;99.90
29577;DHT22;16509;53.862;10.672;2023-06-22T06:42:47;22.00;99.90
29577;DHT22;16509;53.862;10.672;2023-06-22T06:45:21;23.20;99.90
29577;DHT22;16509;53.862;10.672;2023-06-22T06:47:51;23.30;99.90
29577;DHT22;16509;53.862;10.672;2023-06-22T06:50:18;22.40;99.90
29577;DHT22;16509;53.862;10.672;2023-06-22T06:52:43;22.40;99.90
29577;DHT22;16509;53.862;10.672;2023-06-22T06:55:10;23.60;99.90
29577;DHT22;16509;53.862;10.672;2023-06-22T06:57:40;22.50;99.90
29577;DHT22;16509;53.862;10.672;2023-06-22T07:00:08;22.50;99.90
29577;DHT22;16509;53.862;10.672;2023-06-22T07:02:43;22.10;99.90
29577;DHT22;16509;53.862;10.672;2023-06-22T07:05:10;22.00;99.90
29577;DHT22;16509;53.862;10.672;2023-06-22T07:07:35;21.90;99.90
29577;DHT22;16509;53.862;10.672;2023-06-22T07:12:27;21.70;99.90
29577;DHT22;16509;53.862;10.672;2023-06-22T07:14:53;21.70;99.90
29577;DHT22;16509;53.862;10.672;2023-06-22T07:17:19;22.50;99.90
29577;DHT22;16509;53.862;10.672;2023-06-22T07:19:45;21.90;99.90
29577;DHT22;16509;53.862;10.672;2023-06-22T07:22:11;21.90;99.90
29577;DHT22;16509;53.862;10.672;2023-06-22T07:24:36;22.10;99.90
29577;DHT22;16509;53.862;10.672;2023-06-22T07:27:02;22.00;99.90
29577;DHT22;16509;53.862;10.672;2023-06-22T07:29:29;22.50;99.90
29577;DHT22;16509;53.862;10.672;2023-06-22T07:31:54;22.70;99.90
29577;DHT22;16509;53.862;10.672;2023-06-22T07:34:21;22.70;99.90
29577;DHT22;16509;53.862;10.672;2023-06-22T07:36:47;23.10;99.90
29577;DHT22;16509;53.862;10.672;2023-06-22T07:39:12;23.00;99.90
29577;DHT22;16509;53.862;10.672;2023-06-22T07:41:39;23.20;99.90
29577;DHT22;16509;53.862;10.672;2023-06-22T07:44:06;23.20;99.90
29577;DHT22;16509;53.862;10.672;2023-06-22T07:46:32;23.90;99.90
29577;DHT22;16509;53.862;10.672;2023-06-22T07:48:58;22.90;99.90
29577;DHT22;16509;53.862;10.672;2023-06-22T07:51:25;23.00;99.90
29577;DHT22;16509;53.862;10.672;2023-06-22T07:53:50;23.30;99.90
29577;DHT22;16509;53.862;10.672;2023-06-22T07:56:16;23.60;99.90
29577;DHT22;16509;53.862;10.672;2023-06-22T07:58:45;23.80;99.90
29577;DHT22;16509;53.862;10.672;2023-06-22T08:01:12;23.70;99.90
29577;DHT22;16509;53.862;10.672;2023-06-22T08:03:37;23.70;99.90
29577;DHT22;16509;53.862;10.672;2023-06-22T08:06:04;23.90;99.90
29577;DHT22;16509;53.862;10.672;2023-06-22T08:08:31;24.20;99.90
29577;DHT22;16509;53.862;10.672;2023-06-22T08:10:57;24.10;99.90
29577;DHT22;16509;53.862;10.672;2023-06-22T08:13:22;24.30;99.90
29577;DHT22;16509;53.862;10.672;2023-06-22T08:15:48;24.70;99.90
29577;DHT22;16509;53.862;10.672;2023-06-22T08:18:14;24.80;99.90
29577;DHT22;16509;53.862;10.672;2023-06-22T08:20:40;24.80;99.90
29577;DHT22;16509;53.862;10.672;2023-06-22T08:23:05;24.70;99.90
29577;DHT22;16509;53.862;10.672;2023-06-22T08:25:34;25.00;99.90
29577;DHT22;16509;53.862;10.672;2023-06-22T08:28:01;25.10;99.90
29577;DHT22;16509;53.862;10.672;2023-06-22T08:30:27;25.00;99.90
29577;DHT22;16509;53.862;10.672;2023-06-22T08:32:53;25.50;99.90
29577;DHT22;16509;53.862;10.672;2023-06-22T08:35:21;25.40;99.90
29577;DHT22;16509;53.862;10.672;2023-06-22T08:37:47;25.10;99.90
29577;DHT22;16509;53.862;10.672;2023-06-22T08:40:18;25.10;99.90
29577;DHT22;16509;53.862;10.672;2023-06-22T08:42:45;25.40;99.90
29577;DHT22;16509;53.862;10.672;2023-06-22T08:45:10;25.60;99.90
29577;DHT22;16509;53.862;10.672;2023-06-22T08:50:02;25.90;99.90
29577;DHT22;16509;53.862;10.672;2023-06-22T08:52:28;25.80;99.90
29577;DHT22;16509;53.862;10.672;2023-06-22T08:54:54;25.80;99.90
29577;DHT22;16509;53.862;10.672;2023-06-22T08:57:21;25.50;99.90
29577;DHT22;16509;53.862;10.672;2023-06-22T08:59:46;25.40;99.90
29577;DHT22;16509;53.862;10.672;2023-06-22T09:02:12;25.80;99.90
29577;DHT22;16509;53.862;10.672;2023-06-22T09:04:38;26.10;99.90
29577;DHT22;16509;53.862;10.672;2023-06-22T09:07:03;26.30;99.90
29577;DHT22;16509;53.862;10.672;2023-06-22T09:09:29;26.10;99.90
29577;DHT22;16509;53.862;10.672;2023-06-22T09:11:54;25.90;99.90
29577;DHT22;16509;53.862;10.672;2023-06-22T09:14:20;26.00;99.90
29577;DHT22;16509;53.862;10.672;2023-06-22T09:16:46;25.90;99.90
29577;DHT22;16509;53.862;10.672;2023-06-22T09:19:12;25.70;99.90
29577;DHT22;16509;53.862;10.672;2023-06-22T09:21:37;26.00;99.90
29577;DHT22;16509;53.862;10.672;2023-06-22T09:24:03;26.00;99.90
29577;DHT22;16509;53.862;10.672;2023-06-22T09:26:29;26.10;99.90
29577;DHT22;16509;53.862;10.672;2023-06-22T09:31:21;26.20;99.90
29577;DHT22;16509;53.862;10.672;2023-06-22T09:33:51;26.10;99.90
29577;DHT22;16509;53.862;10.672;2023-06-22T09:36:18;25.60;99.90
29577;DHT22;16509;53.862;10.672;2023-06-22T09:38:43;26.10;99.90
29577;DHT22;16509;53.862;10.672;2023-06-22T09:41:09;26.10;99.90
29577;DHT22;16509;53.862;10.672;2023-06-22T09:43:34;26.00;99.90
29577;DHT22;16509;53.862;10.672;2023-06-22T09:48:27;26.20;99.90
29577;DHT22;16509;53.862;10.672;2023-06-22T09:50:53;26.60;99.90
29577;DHT22;16509;53.862;10.672;2023-06-22T09:53:19;27.00;99.90
29577;DHT22;16509;53.862;10.672;2023-06-22T09:55:46;26.60;99.90
29577;DHT22;16509;53.862;10.672;2023-06-22T09:58:12;27.20;99.90
29577;DHT22;16509;53.862;10.672;2023-06-22T10:00:37;27.30;99.90
29577;DHT22;16509;53.862;10.672;2023-06-22T10:03:03;27.90;99.90
29577;DHT22;16509;53.862;10.672;2023-06-22T10:05:28;27.50;99.90
29577;DHT22;16509;53.862;10.672;2023-06-22T10:07:54;27.00;99.90
29577;DHT22;16509;53.862;10.672;2023-06-22T10:10:19;27.10;99.90
29577;DHT22;16509;53.862;10.672;2023-06-22T10:12:55;26.80;99.90
29577;DHT22;16509;53.862;10.672;2023-06-22T10:15:21;26.90;99.90
29577;DHT22;16509;53.862;10.672;2023-06-22T10:17:47;26.60;99.90
29577;DHT22;16509;53.862;10.672;2023-06-22T10:20:12;26.70;99.90
29577;DHT22;16509;53.862;10.672;2023-06-22T10:22:43;25.80;99.90
29577;DHT22;16509;53.862;10.672;2023-06-22T10:25:11;26.60;99.90
29577;DHT22;16509;53.862;10.672;2023-06-22T10:27:37;26.90;99.90
29577;DHT22;16509;53.862;10.672;2023-06-22T10:30:06;26.90;99.90
29577;DHT22;16509;53.862;10.672;2023-06-22T10:34:58;26.50;99.90
29577;DHT22;16509;53.862;10.672;2023-06-22T10:37:23;27.10;99.90
29577;DHT22;16509;53.862;10.672;2023-06-22T10:39:49;27.40;99.90
29577;DHT22;16509;53.862;10.672;2023-06-22T10:42:14;27.00;99.90
29577;DHT22;16509;53.862;10.672;2023-06-22T10:47:08;27.10;99.90
29577;DHT22;16509;53.862;10.672;2023-06-22T10:54:26;28.40;99.90
29577;DHT22;16509;53.862;10.672;2023-06-22T10:56:52;28.20;99.90
29577;DHT22;16509;53.862;10.672;2023-06-22T10:59:17;28.60;99.90
29577;DHT22;16509;53.862;10.672;2023-06-22T11:01:43;29.00;99.90
29577;DHT22;16509;53.862;10.672;2023-06-22T11:04:08;28.50;99.90
29577;DHT22;16509;53.862;10.672;2023-06-22T11:06:34;28.90;99.90
29577;DHT22;16509;53.862;10.672;2023-06-22T11:08:59;28.10;99.90
29577;DHT22;16509;53.862;10.672;2023-06-22T11:11:25;28.40;99.90
29577;DHT22;16509;53.862;10.672;2023-06-22T11:18:43;28.00;99.90
29577;DHT22;16509;53.862;10.672;2023-06-22T11:33:18;28.40;99.90
29577;DHT22;16509;53.862;10.672;2023-06-22T11:38:10;28.10;99.90
29577;DHT22;16509;53.862;10.672;2023-06-22T11:43:01;28.60;99.90
29577;DHT22;16509;53.862;10.672;2023-06-22T11:45:27;28.50;99.90
29577;DHT22;16509;53.862;10.672;2023-06-22T11:47:52;28.60;99.90
29577;DHT22;16509;53.862;10.672;2023-06-22T11:52:44;29.10;99.90
29577;DHT22;16509;53.862;10.672;2023-06-22T11:55:09;29.30;99.90
29577;DHT22;16509;53.862;10.672;2023-06-22T11:57:36;29.10;99.90
29577;DHT22;16509;53.862;10.672;2023-06-22T12:00:03;29.50;99.90
29577;DHT22;16509;53.862;10.672;2023-06-22T12:02:42;29.40;99.90
29577;DHT22;16509;53.862;10.672;2023-06-22T12:05:07;28.70;99.90
29577;DHT22;16509;53.862;10.672;2023-06-22T12:07:33;28.30;99.90
29577;DHT22;16509;53.862;10.672;2023-06-22T12:09:59;28.10;99.90
29577;DHT22;16509;53.862;10.672;2023-06-22T12:12:24;27.60;99.90
29577;DHT22;16509;53.862;10.672;2023-06-22T12:22:08;26.70;99.90
29577;DHT22;16509;53.862;10.672;2023-06-22T12:24:33;26.50;99.90
29577;DHT22;16509;53.862;10.672;2023-06-22T12:26:59;26.30;99.90
29577;DHT22;16509;53.862;10.672;2023-06-22T12:31:50;26.20;99.90
29577;DHT22;16509;53.862;10.672;2023-06-22T12:34:16;25.80;99.90
29577;DHT22;16509;53.862;10.672;2023-06-22T12:36:41;26.50;99.90
29577;DHT22;16509;53.862;10.672;2023-06-22T12:43:58;27.70;99.90
29577;DHT22;16509;53.862;10.672;2023-06-22T12:46:24;28.10;99.90
29577;DHT22;16509;53.862;10.672;2023-06-22T12:51:22;28.40;99.90
29577;DHT22;16509;53.862;10.672;2023-06-22T12:56:14;27.90;99.90
29577;DHT22;16509;53.862;10.672;2023-06-22T13:03:31;27.80;99.90
29577;DHT22;16509;53.862;10.672;2023-06-22T13:08:23;28.20;99.90
29577;DHT22;16509;53.862;10.672;2023-06-22T13:10:48;27.80;99.90
29577;DHT22;16509;53.862;10.672;2023-06-22T13:22:57;27.50;99.90
29577;DHT22;16509;53.862;10.672;2023-06-22T13:25:23;27.30;99.90
29577;DHT22;16509;53.862;10.672;2023-06-22T13:27:51;27.20;99.90
29577;DHT22;16509;53.862;10.672;2023-06-22T13:30:17;27.80;99.90
29577;DHT22;16509;53.862;10.672;2023-06-22T13:32:43;27.90;99.90
29577;DHT22;16509;53.862;10.672;2023-06-22T13:35:12;27.90;99.90
29577;DHT22;16509;53.862;10.672;2023-06-22T13:37:37;27.80;99.90
29577;DHT22;16509;53.862;10.672;2023-06-22T13:40:06;27.60;99.90
29577;DHT22;16509;53.862;10.672;2023-06-22T13:49:50;26.90;99.90
29577;DHT22;16509;53.862;10.672;2023-06-22T13:52:15;26.70;99.90
29577;DHT22;16509;53.862;10.672;2023-06-22T13:54:41;26.70;99.90
29577;DHT22;16509;53.862;10.672;2023-06-22T14:11:42;26.40;99.90
29577;DHT22;16509;53.862;10.672;2023-06-22T14:19:00;26.50;99.90
29577;DHT22;16509;53.862;10.672;2023-06-22T14:21:26;26.40;99.90
29577;DHT22;16509;53.862;10.672;2023-06-22T14:23:51;26.50;99.90
29577;DHT22;16509;53.862;10.672;2023-06-22T14:28:46;26.00;99.90
29577;DHT22;16509;53.862;10.672;2023-06-22T14:31:18;25.90;99.90
29577;DHT22;16509;53.862;10.672;2023-06-22T14:33:46;25.90;99.90
29577;DHT22;16509;53.862;10.672;2023-06-22T14:36:13;25.60;99.90
29577;DHT22;16509;53.862;10.672;2023-06-22T14:38:38;25.90;99.90
29577;DHT22;16509;53.862;10.672;2023-06-22T14:41:04;25.60;99.90
29577;DHT22;16509;53.862;10.672;2023-06-22T14:43:30;25.90;99.90
29577;DHT22;16509;53.862;10.672;2023-06-22T14:48:21;25.70;99.90
29577;DHT22;16509;53.862;10.672;2023-06-22T14:53:13;25.40;99.90
29577;DHT22;16509;53.862;10.672;2023-06-22T14:55:39;25.40;99.90
29577;DHT22;16509;53.862;10.672;2023-06-22T15:00:31;25.20;99.90
29577;DHT22;16509;53.862;10.672;2023-06-22T15:02:57;25.30;99.90
29577;DHT22;16509;53.862;10.672;2023-06-22T15:05:24;25.50;99.90
29577;DHT22;16509;53.862;10.672;2023-06-22T15:07:50;25.20;99.90
29577;DHT22;16509;53.862;10.672;2023-06-22T15:10:15;25.30;99.90
29577;DHT22;16509;53.862;10.672;2023-06-22T15:15:07;25.20;99.90
29577;DHT22;16509;53.862;10.672;2023-06-22T15:17:33;25.10;99.90
29577;DHT22;16509;53.862;10.672;2023-06-22T15:19:59;25.00;99.90
29577;DHT22;16509;53.862;10.672;2023-06-22T15:24:51;24.70;99.90
29577;DHT22;16509;53.862;10.672;2023-06-22T15:27:19;24.70;99.90
29577;DHT22;16509;53.862;10.672;2023-06-22T15:29:45;24.50;99.90
29577;DHT22;16509;53.862;10.672;2023-06-22T15:32:11;24.30;99.90
29577;DHT22;16509;53.862;10.672;2023-06-22T15:34:38;24.40;99.90
29577;DHT22;16509;53.862;10.672;2023-06-22T15:37:03;24.00;99.90
29577;DHT22;16509;53.862;10.672;2023-06-22T15:41:55;23.90;99.90
29577;DHT22;16509;53.862;10.672;2023-06-22T15:49:15;23.70;99.90
29577;DHT22;16509;53.862;10.672;2023-06-22T15:54:06;23.40;99.90
29577;DHT22;16509;53.862;10.672;2023-06-22T15:56:32;23.30;99.90
29577;DHT22;16509;53.862;10.672;2023-06-22T16:03:50;23.60;99.90
29577;DHT22;16509;53.862;10.672;2023-06-22T16:06:16;23.40;99.90
29577;DHT22;16509;53.862;10.672;2023-06-22T16:11:07;23.20;99.90
29577;DHT22;16509;53.862;10.672;2023-06-22T16:15:59;23.20;99.90
29577;DHT22;16509;53.862;10.672;2023-06-22T16:18:25;22.90;99.90
29577;DHT22;16509;53.862;10.672;2023-06-22T16:23:20;23.00;99.90
29577;DHT22;16509;53.862;10.672;2023-06-22T16:25:45;23.00;99.90
29577;DHT22;16509;53.862;10.672;2023-06-22T16:28:11;23.00;99.90
29577;DHT22;16509;53.862;10.672;2023-06-22T16:30:36;23.00;99.90
29577;DHT22;16509;53.862;10.672;2023-06-22T16:33:02;23.40;99.90
29577;DHT22;16509;53.862;10.672;2023-06-22T16:35:28;23.00;99.90
29577;DHT22;16509;53.862;10.672;2023-06-22T16:37:55;22.80;99.90
29577;DHT22;16509;53.862;10.672;2023-06-22T16:40:22;22.80;99.90
29577;DHT22;16509;53.862;10.672;2023-06-22T16:42:48;22.90;99.90
29577;DHT22;16509;53.862;10.672;2023-06-22T16:45:16;22.70;99.90
29577;DHT22;16509;53.862;10.672;2023-06-22T16:47:42;22.40;99.90
29577;DHT22;16509;53.862;10.672;2023-06-22T16:50:09;22.70;99.90
29577;DHT22;16509;53.862;10.672;2023-06-22T16:52:35;23.70;99.90
29577;DHT22;16509;53.862;10.672;2023-06-22T16:55:06;22.40;99.90
29577;DHT22;16509;53.862;10.672;2023-06-22T16:57:32;22.30;99.90
29577;DHT22;16509;53.862;10.672;2023-06-22T17:02:25;22.20;99.90
29577;DHT22;16509;53.862;10.672;2023-06-22T17:04:54;22.30;99.90
29577;DHT22;16509;53.862;10.672;2023-06-22T17:07:22;22.10;99.90
29577;DHT22;16509;53.862;10.672;2023-06-22T17:09:49;22.30;99.90
29577;DHT22;16509;53.862;10.672;2023-06-22T17:14:42;22.40;99.90
29577;DHT22;16509;53.862;10.672;2023-06-22T17:17:16;22.40;99.90
29577;DHT22;16509;53.862;10.672;2023-06-22T17:19:44;22.10;99.90
29577;DHT22;16509;53.862;10.672;2023-06-22T17:22:11;22.40;99.90
29577;DHT22;16509;53.862;10.672;2023-06-22T17:24:37;22.50;99.90
29577;DHT22;16509;53.862;10.672;2023-06-22T17:27:04;22.50;99.90
29577;DHT22;16509;53.862;10.672;2023-06-22T17:29:31;22.50;99.90
29577;DHT22;16509;53.862;10.672;2023-06-22T17:31:57;22.50;99.90
29577;DHT22;16509;53.862;10.672;2023-06-22T17:34:26;22.40;99.90
29577;DHT22;16509;53.862;10.672;2023-06-22T17:36:54;22.40;99.90
29577;DHT22;16509;53.862;10.672;2023-06-22T17:39:25;22.40;99.90
29577;DHT22;16509;53.862;10.672;2023-06-22T17:41:51;22.40;99.90
29577;DHT22;16509;53.862;10.672;2023-06-22T17:44:26;22.40;99.90
29577;DHT22;16509;53.862;10.672;2023-06-22T17:46:53;22.40;99.90
29577;DHT22;16509;53.862;10.672;2023-06-22T17:49:20;22.30;99.90
29577;DHT22;16509;53.862;10.672;2023-06-22T17:51:45;22.30;99.90
29577;DHT22;16509;53.862;10.672;2023-06-22T17:59:06;22.20;99.90
29577;DHT22;16509;53.862;10.672;2023-06-22T18:01:36;22.30;99.90
29577;DHT22;16509;53.862;10.672;2023-06-22T18:06:39;22.20;99.90
29577;DHT22;16509;53.862;10.672;2023-06-22T18:09:06;22.40;99.90
29577;DHT22;16509;53.862;10.672;2023-06-22T18:11:45;22.30;99.90
29577;DHT22;16509;53.862;10.672;2023-06-22T18:14:14;22.20;99.90
29577;DHT22;16509;53.862;10.672;2023-06-22T18:16:42;22.40;99.90
29577;DHT22;16509;53.862;10.672;2023-06-22T18:19:08;22.20;99.90
29577;DHT22;16509;53.862;10.672;2023-06-22T18:21:35;22.20;99.90
29577;DHT22;16509;53.862;10.672;2023-06-22T18:28:55;22.10;99.90